createdAt,value
2018-07-22T00:01:04.013Z,8.77
2018-07-22T00:03:32.778Z,8.43
2018-07-22T00:06:01.623Z,8.70
2018-07-22T00:08:30.419Z,8.80
2018-07-22T00:10:59.162Z,9.33
2018-07-22T00:13:27.965Z,8.90
2018-07-22T00:15:56.736Z,10.00
2018-07-22T00:18:25.601Z,11.37
2018-07-22T00:20:54.321Z,7.80
2018-07-22T00:23:23.443Z,10.23
2018-07-22T00:25:52.462Z,8.27
2018-07-22T00:28:21.367Z,9.87
2018-07-22T00:30:50.041Z,10.97
2018-07-22T00:33:18.898Z,8.50
2018-07-22T00:35:47.821Z,8.70
2018-07-22T00:38:16.733Z,16.17
2018-07-22T00:40:45.765Z,10.90
2018-07-22T00:43:14.622Z,9.13
2018-07-22T00:45:43.248Z,7.53
2018-07-22T00:48:12.117Z,10.03
2018-07-22T00:50:40.927Z,9.03
2018-07-22T00:53:09.778Z,10.47
2018-07-22T00:55:38.574Z,9.13
2018-07-22T00:58:07.378Z,9.67
2018-07-22T01:00:36.266Z,11.20
2018-07-22T01:03:05.124Z,13.93
2018-07-22T01:05:33.991Z,12.03
2018-07-22T01:08:02.832Z,12.40
2018-07-22T01:10:31.575Z,13.17
2018-07-22T01:13:00.382Z,9.00
2018-07-22T01:15:29.280Z,9.80
2018-07-22T01:17:58.211Z,11.90
2018-07-22T01:20:26.978Z,10.63
2018-07-22T01:22:55.788Z,10.90
2018-07-22T01:25:24.564Z,9.70
2018-07-22T01:27:53.526Z,9.83
2018-07-22T01:30:22.206Z,10.83
2018-07-22T01:32:51.190Z,11.00
2018-07-22T01:35:20.022Z,12.90
2018-07-22T01:37:48.923Z,10.10
2018-07-22T01:40:17.774Z,11.60
2018-07-22T01:42:46.710Z,10.60
2018-07-22T01:45:15.579Z,11.20
2018-07-22T01:47:44.354Z,8.87
2018-07-22T01:50:13.137Z,9.50
2018-07-22T01:52:42.735Z,10.60
2018-07-22T01:55:11.663Z,16.00
2018-07-22T01:57:40.481Z,11.17
2018-07-22T02:00:09.396Z,11.13
2018-07-22T02:02:38.214Z,10.70
2018-07-22T02:05:07.095Z,9.93
2018-07-22T02:07:36.080Z,11.50
2018-07-22T02:10:04.916Z,12.03
2018-07-22T02:12:33.777Z,12.03
2018-07-22T02:15:02.664Z,12.87
2018-07-22T02:17:31.450Z,10.50
2018-07-22T02:20:00.182Z,9.63
2018-07-22T02:22:28.962Z,12.87
2018-07-22T02:24:57.812Z,10.00
2018-07-22T02:27:26.589Z,9.80
2018-07-22T02:29:55.360Z,12.00
2018-07-22T02:32:24.168Z,15.67
2018-07-22T02:34:52.934Z,13.50
2018-07-22T02:37:21.744Z,9.23
2018-07-22T02:39:50.769Z,10.50
2018-07-22T02:42:19.343Z,15.33
2018-07-22T02:44:47.973Z,10.43
2018-07-22T02:47:16.903Z,10.43
2018-07-22T02:49:45.690Z,11.80
2018-07-22T02:52:14.514Z,14.00
2018-07-22T02:54:43.118Z,10.63
2018-07-22T02:57:11.889Z,9.90
2018-07-22T02:59:40.590Z,12.53
2018-07-22T03:02:09.074Z,13.13
2018-07-22T03:04:37.679Z,13.73
2018-07-22T03:07:06.352Z,12.40
2018-07-22T03:09:35.179Z,12.83
2018-07-22T03:12:03.968Z,12.30
2018-07-22T03:14:32.928Z,11.57
2018-07-22T03:17:01.781Z,12.57
2018-07-22T03:19:30.595Z,15.70
2018-07-22T03:21:59.489Z,14.67
2018-07-22T03:24:28.291Z,11.27
2018-07-22T03:26:57.111Z,11.90
2018-07-22T03:29:26.205Z,13.93
2018-07-22T03:31:55.082Z,16.63
2018-07-22T03:34:23.907Z,12.67
2018-07-22T03:36:52.477Z,14.60
2018-07-22T03:39:21.155Z,17.83
2018-07-22T03:41:50.115Z,10.43
2018-07-22T03:44:18.922Z,11.77
2018-07-22T03:46:47.719Z,12.07
2018-07-22T03:49:16.712Z,12.17
2018-07-22T03:51:45.500Z,15.00
2018-07-22T03:54:14.299Z,13.23
2018-07-22T03:56:43.489Z,13.83
2018-07-22T03:59:12.255Z,15.47
2018-07-22T04:01:41.159Z,14.40
2018-07-22T04:04:10.051Z,12.77
2018-07-22T04:06:38.849Z,16.03
2018-07-22T04:09:08.959Z,13.23
2018-07-22T04:11:38.118Z,15.57
2018-07-22T04:14:07.024Z,10.47
2018-07-22T04:16:35.896Z,16.47
2018-07-22T04:19:04.733Z,11.83
2018-07-22T04:21:33.618Z,15.70
2018-07-22T04:24:02.472Z,12.93
2018-07-22T04:26:31.290Z,13.73
2018-07-22T04:29:00.112Z,15.07
2018-07-22T04:31:28.893Z,14.53
2018-07-22T04:33:57.744Z,14.60
2018-07-22T04:36:26.573Z,13.10
2018-07-22T04:38:55.434Z,12.77
2018-07-22T04:41:24.482Z,14.50
2018-07-22T04:43:53.375Z,17.07
2018-07-22T04:46:22.124Z,13.70
2018-07-22T04:48:50.909Z,14.87
2018-07-22T04:51:19.766Z,13.27
2018-07-22T04:53:48.684Z,14.57
2018-07-22T04:56:17.507Z,11.27
2018-07-22T04:58:46.435Z,16.20
2018-07-22T05:01:15.222Z,12.53
2018-07-22T05:03:44.033Z,13.67
2018-07-22T05:06:13.019Z,14.00
2018-07-22T05:08:42.794Z,10.70
2018-07-22T05:11:11.685Z,12.00
2018-07-22T05:13:40.612Z,12.70
2018-07-22T05:16:09.369Z,12.87
2018-07-22T05:18:38.263Z,11.10
2018-07-22T05:21:07.251Z,10.90
2018-07-22T05:23:36.063Z,18.40
2018-07-22T05:26:05.200Z,10.53
2018-07-22T05:28:33.996Z,13.33
2018-07-22T05:31:02.983Z,11.77
2018-07-22T05:33:31.972Z,15.07
2018-07-22T05:36:00.906Z,13.03
2018-07-22T05:38:29.808Z,11.37
2018-07-22T05:40:58.898Z,11.53
2018-07-22T05:43:27.781Z,14.47
2018-07-22T05:45:56.591Z,13.37
2018-07-22T05:48:25.454Z,11.13
2018-07-22T05:50:54.382Z,19.60
2018-07-22T05:53:23.255Z,10.83
2018-07-22T05:55:51.891Z,11.00
2018-07-22T05:58:20.707Z,12.67
2018-07-22T06:00:49.581Z,12.50
2018-07-22T06:03:18.487Z,9.30
2018-07-22T06:05:47.285Z,11.17
2018-07-22T06:08:16.094Z,13.40
2018-07-22T06:10:44.778Z,14.83
2018-07-22T06:13:13.513Z,11.13
2018-07-22T06:15:42.402Z,11.80
2018-07-22T06:18:11.187Z,9.17
2018-07-22T06:20:40.251Z,8.27
2018-07-22T06:23:09.115Z,9.00
2018-07-22T06:25:38.133Z,14.30
2018-07-22T06:28:07.019Z,11.37
2018-07-22T06:30:35.851Z,8.37
2018-07-22T06:33:04.744Z,8.27
2018-07-22T06:35:33.528Z,10.13
2018-07-22T06:38:02.284Z,8.50
2018-07-22T06:40:31.033Z,13.13
2018-07-22T06:42:59.923Z,10.83
2018-07-22T06:45:28.855Z,9.40
2018-07-22T06:47:57.579Z,11.43
2018-07-22T06:50:26.387Z,10.43
2018-07-22T06:52:55.318Z,10.73
2018-07-22T06:55:24.103Z,8.93
2018-07-22T06:57:52.903Z,9.10
2018-07-22T07:00:21.795Z,10.07
2018-07-22T07:02:50.691Z,9.37
2018-07-22T07:05:19.470Z,9.97
2018-07-22T07:07:48.403Z,14.10
2018-07-22T07:10:17.438Z,9.63
2018-07-22T07:12:46.538Z,10.17
2018-07-22T07:15:15.311Z,11.23
2018-07-22T07:17:44.266Z,8.83
2018-07-22T07:20:13.067Z,12.97
2018-07-22T07:22:41.962Z,11.53
2018-07-22T07:25:10.896Z,8.97
2018-07-22T07:27:39.717Z,12.27
2018-07-22T07:30:08.627Z,13.50
2018-07-22T07:32:37.507Z,9.40
2018-07-22T07:35:06.240Z,10.23
2018-07-22T07:37:35.171Z,10.50
2018-07-22T07:40:04.754Z,8.57
2018-07-22T07:42:33.594Z,10.67
2018-07-22T07:45:03.458Z,10.90
2018-07-22T07:47:32.362Z,10.10
2018-07-22T07:50:01.904Z,9.70
2018-07-22T07:52:30.754Z,9.33
2018-07-22T07:54:59.535Z,8.60
2018-07-22T07:57:28.656Z,7.53
2018-07-22T07:59:57.365Z,8.30
2018-07-22T08:02:26.409Z,10.90
2018-07-22T08:04:55.715Z,12.50
2018-07-22T08:07:24.569Z,7.77
2018-07-22T08:09:53.392Z,8.90
2018-07-22T08:12:22.279Z,8.23
2018-07-22T08:14:51.320Z,8.70
2018-07-22T08:17:20.262Z,8.33
2018-07-22T08:19:49.088Z,7.57
2018-07-22T08:22:17.844Z,10.73
2018-07-22T08:24:46.524Z,9.77
2018-07-22T08:27:15.475Z,9.47
2018-07-22T08:29:44.216Z,10.43
2018-07-22T08:32:13.004Z,8.27
2018-07-22T08:34:41.776Z,10.90
2018-07-22T08:37:10.598Z,11.43
2018-07-22T08:39:39.490Z,8.73
2018-07-22T08:42:08.287Z,8.20
2018-07-22T08:44:37.104Z,7.77
2018-07-22T08:47:06.038Z,7.03
2018-07-22T08:49:34.825Z,7.43
2018-07-22T08:52:03.663Z,7.80
2018-07-22T08:54:32.459Z,8.00
2018-07-22T08:57:01.287Z,6.83
2018-07-22T08:59:30.168Z,6.90
2018-07-22T09:01:58.951Z,10.03
2018-07-22T09:04:27.825Z,12.07
2018-07-22T09:06:56.602Z,9.03
2018-07-22T09:09:25.324Z,7.20
2018-07-22T09:11:54.155Z,12.37
2018-07-22T09:14:22.747Z,7.73
2018-07-22T09:16:51.384Z,9.50
2018-07-22T09:19:20.184Z,9.80
2018-07-22T09:21:48.913Z,7.90
2018-07-22T09:24:17.639Z,7.53
2018-07-22T09:26:46.594Z,11.70
2018-07-22T09:29:15.393Z,8.03
2018-07-22T09:31:44.118Z,10.70
2018-07-22T09:34:12.857Z,7.00
2018-07-22T09:36:41.619Z,8.10
2018-07-22T09:39:11.379Z,6.93
2018-07-22T09:41:40.194Z,9.67
2018-07-22T09:44:08.969Z,7.13
2018-07-22T09:46:37.699Z,5.73
2018-07-22T09:49:06.540Z,6.30
2018-07-22T09:51:35.251Z,7.70
2018-07-22T09:54:04.005Z,8.57
2018-07-22T09:56:32.761Z,7.27
2018-07-22T09:59:01.523Z,6.60
2018-07-22T10:01:30.271Z,7.10
2018-07-22T10:03:59.102Z,9.07
2018-07-22T10:06:27.979Z,9.07
2018-07-22T10:08:56.720Z,7.67
2018-07-22T10:11:25.477Z,9.80
2018-07-22T10:13:54.202Z,7.10
2018-07-22T10:16:22.976Z,7.57
2018-07-22T10:18:51.711Z,8.10
2018-07-22T10:21:21.432Z,9.37
2018-07-22T10:23:50.266Z,9.65
2018-07-22T10:26:18.842Z,8.70
2018-07-22T10:28:47.538Z,10.43
2018-07-22T10:31:16.232Z,11.08
2018-07-22T10:33:45.080Z,13.87
2018-07-22T10:36:13.815Z,9.17
2018-07-22T10:38:42.566Z,8.48
2018-07-22T10:41:11.291Z,12.25
2018-07-22T10:43:40.089Z,14.60
2018-07-22T10:46:08.851Z,19.82
2018-07-22T10:48:37.594Z,12.45
2018-07-22T10:51:06.592Z,13.22
2018-07-22T10:53:35.348Z,26.27
2018-07-22T10:56:04.207Z,8.73
2018-07-22T10:58:32.934Z,11.00
2018-07-22T11:01:01.722Z,10.70
2018-07-22T11:03:30.496Z,11.08
2018-07-22T11:05:59.225Z,10.00
2018-07-22T11:08:27.976Z,9.55
2018-07-22T11:10:56.698Z,7.55
2018-07-22T11:13:25.433Z,6.75
2018-07-22T11:15:54.175Z,9.45
2018-07-22T11:18:22.949Z,10.35
2018-07-22T11:20:51.741Z,9.43
2018-07-22T11:23:20.522Z,7.58
2018-07-22T11:25:49.272Z,16.42
2018-07-22T11:28:18.144Z,11.45
2018-07-22T11:30:46.887Z,9.63
2018-07-22T11:33:15.683Z,8.23
2018-07-22T11:35:44.463Z,10.58
2018-07-22T11:38:13.231Z,9.95
2018-07-22T11:40:42.001Z,9.75
2018-07-22T11:43:10.549Z,7.22
2018-07-22T11:45:39.187Z,8.08
2018-07-22T11:48:07.942Z,11.75
2018-07-22T11:50:36.765Z,9.00
2018-07-22T11:53:05.426Z,15.15
2018-07-22T11:55:34.050Z,11.35
2018-07-22T11:58:02.671Z,10.00
2018-07-22T12:00:31.421Z,10.70
2018-07-22T12:03:00.161Z,10.13
2018-07-22T12:05:28.935Z,9.83
2018-07-22T12:07:57.676Z,9.93
2018-07-22T12:10:26.423Z,16.52
2018-07-22T12:12:55.222Z,12.78
2018-07-22T12:15:23.967Z,8.53
2018-07-22T12:17:52.707Z,9.60
2018-07-22T12:20:21.311Z,8.95
2018-07-22T12:22:49.739Z,8.88
2018-07-22T12:25:18.426Z,8.80
2018-07-22T12:27:47.150Z,10.45
2018-07-22T12:30:15.892Z,8.38
2018-07-22T12:32:44.666Z,7.83
2018-07-22T12:35:13.550Z,9.30
2018-07-22T12:37:42.111Z,6.92
2018-07-22T12:40:10.562Z,9.28
2018-07-22T12:42:39.159Z,9.48
2018-07-22T12:45:07.768Z,7.12
2018-07-22T12:47:36.216Z,9.35
2018-07-22T12:50:04.935Z,10.75
2018-07-22T12:52:33.659Z,9.03
2018-07-22T12:55:02.419Z,8.78
2018-07-22T12:57:31.186Z,8.73
2018-07-22T12:59:59.806Z,10.43
2018-07-22T13:02:28.553Z,10.98
2018-07-22T13:04:57.123Z,10.43
2018-07-22T13:07:25.751Z,13.25
2018-07-22T13:09:54.534Z,10.43
2018-07-22T13:12:23.283Z,8.50
2018-07-22T13:14:52.035Z,8.98
2018-07-22T13:17:20.771Z,9.15
2018-07-22T13:19:49.531Z,8.80
2018-07-22T13:22:18.264Z,11.60
2018-07-22T13:24:47.002Z,9.30
2018-07-22T13:27:15.739Z,9.28
2018-07-22T13:29:44.515Z,13.90
2018-07-22T13:32:13.243Z,10.60
2018-07-22T13:34:42.015Z,11.78
2018-07-22T13:37:10.783Z,11.33
2018-07-22T13:39:39.511Z,8.73
2018-07-22T13:42:08.297Z,8.83
2018-07-22T13:44:37.035Z,7.22
2018-07-22T13:47:05.606Z,9.55
2018-07-22T13:49:34.239Z,9.75
2018-07-22T13:52:03.124Z,9.78
2018-07-22T13:54:31.887Z,12.00
2018-07-22T13:57:00.454Z,9.60
2018-07-22T13:59:29.210Z,11.75
2018-07-22T14:01:57.996Z,10.93
2018-07-22T14:04:26.681Z,12.13
2018-07-22T14:06:55.683Z,12.58
2018-07-22T14:09:24.512Z,24.47
2018-07-22T14:11:53.139Z,8.40
2018-07-22T14:14:21.567Z,8.13
2018-07-22T14:16:50.241Z,9.43
2018-07-22T14:19:19.561Z,8.80
2018-07-22T14:21:48.265Z,7.33
2018-07-22T14:24:16.946Z,8.78
2018-07-22T14:26:45.578Z,8.53
2018-07-22T14:29:14.248Z,9.30
2018-07-22T14:31:43.124Z,8.15
2018-07-22T14:34:11.869Z,11.83
2018-07-22T14:36:40.638Z,7.60
2018-07-22T14:39:11.368Z,8.55
2018-07-22T14:41:40.118Z,9.13
2018-07-22T14:44:08.694Z,7.20
2018-07-22T14:46:37.803Z,8.08
2018-07-22T14:49:06.605Z,43.30
2018-07-22T14:51:35.414Z,46.65
2018-07-22T14:54:05.332Z,34.67
2018-07-22T14:56:34.164Z,56.80
2018-07-22T14:59:02.982Z,99.60
2018-07-22T15:01:31.768Z,39.50
2018-07-22T15:04:00.507Z,9.05
2018-07-22T15:06:29.272Z,8.70
2018-07-22T15:08:58.070Z,9.20
2018-07-22T15:11:26.833Z,8.28
2018-07-22T15:13:55.564Z,8.30
2018-07-22T15:16:24.332Z,8.83
2018-07-22T15:18:53.088Z,9.73
2018-07-22T15:21:21.889Z,11.93
2018-07-22T15:23:50.683Z,12.00
2018-07-22T15:26:19.472Z,10.58
2018-07-22T15:28:48.346Z,13.40
2018-07-22T15:31:17.751Z,7.97
2018-07-22T15:33:46.530Z,9.40
2018-07-22T15:36:15.263Z,10.08
2018-07-22T15:38:44.067Z,9.38
2018-07-22T15:41:12.819Z,9.78
2018-07-22T15:43:41.632Z,8.35
2018-07-22T15:46:10.398Z,8.55
2018-07-22T15:48:39.483Z,8.45
2018-07-22T15:51:08.234Z,11.40
2018-07-22T15:53:37.134Z,11.53
2018-07-22T15:56:05.773Z,8.28
2018-07-22T15:58:34.512Z,12.43
2018-07-22T16:01:03.155Z,10.30
2018-07-22T16:03:31.794Z,11.08
2018-07-22T16:06:00.667Z,11.45
2018-07-22T16:08:29.268Z,12.28
2018-07-22T16:10:57.897Z,17.00
2018-07-22T16:13:26.810Z,10.18
2018-07-22T16:15:56.695Z,13.43
2018-07-22T16:18:25.519Z,9.78
2018-07-22T16:20:54.363Z,13.13
2018-07-22T16:23:23.364Z,9.18
2018-07-22T16:25:52.293Z,7.67
2018-07-22T16:28:21.082Z,9.43
2018-07-22T16:30:49.845Z,9.60
2018-07-22T16:33:18.598Z,9.15
2018-07-22T16:35:47.352Z,8.50
2018-07-22T16:38:16.208Z,9.25
2018-07-22T16:40:44.944Z,12.37
2018-07-22T16:43:13.587Z,9.38
2018-07-22T16:45:42.203Z,10.35
2018-07-22T16:48:11.030Z,12.07
2018-07-22T16:50:39.910Z,11.57
2018-07-22T16:53:08.670Z,17.80
2018-07-22T16:55:37.418Z,13.40
2018-07-22T16:58:06.904Z,18.10
2018-07-22T17:00:35.643Z,18.10
2018-07-22T17:03:04.403Z,17.70
2018-07-22T17:05:33.265Z,13.72
2018-07-22T17:08:02.071Z,16.82
2018-07-22T17:10:31.050Z,19.05
2018-07-22T17:12:59.864Z,25.60
2018-07-22T17:15:28.670Z,18.85
2018-07-22T17:17:57.447Z,14.68
2018-07-22T17:20:26.342Z,13.95
2018-07-22T17:22:55.084Z,14.20
2018-07-22T17:25:23.932Z,25.07
2018-07-22T17:27:52.951Z,11.20
2018-07-22T17:30:21.798Z,10.50
2018-07-22T17:32:50.550Z,16.32
2018-07-22T17:35:19.435Z,12.68
2018-07-22T17:37:49.935Z,15.70
2018-07-22T17:40:18.858Z,13.00
2018-07-22T17:42:47.777Z,14.23
2018-07-22T17:45:16.799Z,9.98
2018-07-22T17:47:45.619Z,15.23
2018-07-22T17:50:14.266Z,15.13
2018-07-22T17:52:43.105Z,15.10
2018-07-22T17:55:11.836Z,13.93
2018-07-22T18:00:17.968Z,13.53
2018-07-22T18:02:49.258Z,14.23
2018-07-22T18:05:17.873Z,12.10
2018-07-22T18:07:46.769Z,9.50
2018-07-22T18:10:15.552Z,10.77
2018-07-22T18:12:44.287Z,11.93
2018-07-22T18:15:13.135Z,14.75
2018-07-22T18:17:42.098Z,11.53
2018-07-22T18:20:11.015Z,16.55
2018-07-22T18:22:39.983Z,11.13
2018-07-22T18:25:08.755Z,13.70
2018-07-22T18:27:37.747Z,13.83
2018-07-22T18:30:06.406Z,12.28
2018-07-22T18:32:35.072Z,18.53
2018-07-22T18:35:03.821Z,12.67
2018-07-22T18:37:32.688Z,11.77
2018-07-22T18:40:01.551Z,13.32
2018-07-22T18:42:30.340Z,9.40
2018-07-22T18:44:59.310Z,11.87
2018-07-22T18:47:28.375Z,11.50
2018-07-22T18:49:57.132Z,14.27
2018-07-22T18:52:26.021Z,21.30
2018-07-22T18:54:54.777Z,13.83
2018-07-22T18:57:23.501Z,13.08
2018-07-22T18:59:52.313Z,14.60
2018-07-22T19:02:21.248Z,14.53
2018-07-22T19:04:50.141Z,19.43
2018-07-22T19:07:18.881Z,20.03
2018-07-22T19:09:47.534Z,18.57
2018-07-22T19:12:16.110Z,14.63
2018-07-22T19:14:44.734Z,12.73
2018-07-22T19:17:13.541Z,15.10
2018-07-22T19:19:42.535Z,20.03
2018-07-22T19:22:11.105Z,13.67
2018-07-22T19:24:39.743Z,15.60
2018-07-22T19:27:10.385Z,10.83
2018-07-22T19:29:39.965Z,15.50
2018-07-22T19:32:09.210Z,10.80
2018-07-22T19:34:38.014Z,13.73
2018-07-22T19:37:06.826Z,11.20
2018-07-22T19:39:35.821Z,12.57
2018-07-22T19:42:05.002Z,10.23
2018-07-22T19:44:33.846Z,11.80
2018-07-22T19:47:02.587Z,10.63
2018-07-22T19:49:31.405Z,10.53
2018-07-22T19:52:00.240Z,11.77
2018-07-22T19:54:29.001Z,9.90
2018-07-22T19:56:57.650Z,13.47
2018-07-22T19:59:26.266Z,11.73
2018-07-22T20:01:55.042Z,11.20
2018-07-22T20:04:23.837Z,9.80
2018-07-22T20:06:52.711Z,10.77
2018-07-22T20:09:21.458Z,9.80
2018-07-22T20:11:50.228Z,10.97
2018-07-22T20:14:18.858Z,10.23
2018-07-22T20:16:47.593Z,27.80
2018-07-22T20:19:16.351Z,48.63
2018-07-22T20:21:45.429Z,33.10
2018-07-22T20:24:14.371Z,26.57
2018-07-22T20:26:43.056Z,24.30
2018-07-22T20:29:11.868Z,26.87
2018-07-22T20:31:40.684Z,17.70
2018-07-22T20:34:09.248Z,10.97
2018-07-22T20:36:37.695Z,11.03
2018-07-22T20:39:08.836Z,9.97
2018-07-22T20:41:38.265Z,10.20
2018-07-22T20:44:06.945Z,16.03
2018-07-22T20:46:35.606Z,13.57
2018-07-22T20:49:04.374Z,13.20
2018-07-22T20:51:33.143Z,11.67
2018-07-22T20:54:01.936Z,13.77
2018-07-22T20:56:30.704Z,12.50
2018-07-22T20:58:59.569Z,10.27
2018-07-22T21:01:28.151Z,11.00
2018-07-22T21:03:56.874Z,11.13
2018-07-22T21:06:25.643Z,11.10
2018-07-22T21:08:54.359Z,10.67
2018-07-22T21:11:23.139Z,10.80
2018-07-22T21:13:51.928Z,13.70
2018-07-22T21:16:20.691Z,11.57
2018-07-22T21:18:49.473Z,11.23
2018-07-22T21:21:18.051Z,11.00
2018-07-22T21:23:46.895Z,11.17
2018-07-22T21:26:15.706Z,10.93
2018-07-22T21:28:44.510Z,11.90
2018-07-22T21:31:13.235Z,11.63
2018-07-22T21:33:42.042Z,11.27
2018-07-22T21:36:10.769Z,11.30
2018-07-22T21:38:39.840Z,11.60
2018-07-22T21:41:08.634Z,11.27
2018-07-22T21:43:37.548Z,10.63
2018-07-22T21:46:06.291Z,13.40
2018-07-22T21:48:35.332Z,11.23
2018-07-22T21:51:04.098Z,11.40
2018-07-22T21:53:32.863Z,11.00
2018-07-22T21:56:01.596Z,12.07
2018-07-22T21:58:30.426Z,12.90
2018-07-22T22:00:59.761Z,14.17
2018-07-22T22:03:28.513Z,11.40
2018-07-22T22:05:57.352Z,11.43
2018-07-22T22:08:26.219Z,14.07
2018-07-22T22:10:54.974Z,32.37
2018-07-22T22:13:23.739Z,21.33
2018-07-22T22:15:52.519Z,10.70
2018-07-22T22:18:21.281Z,11.13
2018-07-22T22:20:51.550Z,11.07
2018-07-22T22:23:20.158Z,11.40
2018-07-22T22:25:48.835Z,12.70
2018-07-22T22:28:17.619Z,11.93
2018-07-22T22:30:46.398Z,11.53
2018-07-22T22:33:15.130Z,11.10
2018-07-22T22:35:43.884Z,11.83
2018-07-22T22:38:12.640Z,11.80
2018-07-22T22:40:41.393Z,11.43
2018-07-22T22:43:10.157Z,12.27
2018-07-22T22:45:38.897Z,15.27
2018-07-22T22:48:07.650Z,11.43
2018-07-22T22:50:36.402Z,12.70
2018-07-22T22:53:05.220Z,11.57
2018-07-22T22:55:33.973Z,15.10
2018-07-22T22:58:14.348Z,22.20
2018-07-22T23:00:42.919Z,14.10
2018-07-22T23:03:11.567Z,13.37
2018-07-22T23:05:40.367Z,12.40
2018-07-22T23:08:09.227Z,12.73
2018-07-22T23:10:37.975Z,12.13
2018-07-22T23:13:06.573Z,12.43
2018-07-22T23:15:35.186Z,11.63
2018-07-22T23:18:03.971Z,13.40
2018-07-22T23:20:32.700Z,12.50
2018-07-22T23:23:01.504Z,11.57
2018-07-22T23:25:30.255Z,11.77
2018-07-22T23:27:59.026Z,16.93
2018-07-22T23:30:27.800Z,13.10
2018-07-22T23:32:56.557Z,12.90
2018-07-22T23:35:26.146Z,12.00
2018-07-22T23:37:54.899Z,13.43
2018-07-22T23:40:23.659Z,12.60
2018-07-22T23:42:52.244Z,12.60
2018-07-22T23:45:20.921Z,12.10
2018-07-22T23:47:49.510Z,13.00
2018-07-22T23:50:18.111Z,14.83
2018-07-22T23:52:46.888Z,12.37
2018-07-22T23:55:15.659Z,12.63
2018-07-22T23:57:44.242Z,13.10
